Time;durP1;ratioP1;P1;durP2;ratioP2;P2;SDS_P1;SDS_P2;PMS_P1;PMS_P2;Temp;Humidity;BMP_temperature;BMP_pressure;BME280_temperature;BME280_humidity;BME280_pressure;Samples;Min_cycle;Max_cycle;Signal;HPM_P1;HPM_P2
2023/10/07 00:02:26;;;;;;;15.40;6.80;;;;;;;14.97;100.00;100687.63;4936121;29;20490;-85
2023/10/07 00:04:54;;;;;;;13.17;6.90;;;;;;;15.05;100.00;100705.25;4939035;29;20421;-84
2023/10/07 00:07:31;;;;;;;12.18;6.70;;;;;;;15.02;100.00;100700.41;4927150;29;20433;-85
2023/10/07 00:10:04;;;;;;;14.77;7.10;;;;;;;15.00;100.00;100697.16;4933874;29;20425;-83
2023/10/07 00:12:37;;;;;;;14.38;7.20;;;;;;;14.99;100.00;100699.09;4923206;29;20431;-83
2023/10/07 00:15:11;;;;;;;13.63;7.38;;;;;;;15.06;100.00;100704.94;4930084;29;20421;-87
2023/10/07 00:17:47;;;;;;;15.57;6.90;;;;;;;15.09;100.00;100709.84;4929195;29;23089;-87
2023/10/07 00:20:18;;;;;;;15.35;7.10;;;;;;;15.04;100.00;100714.59;4929975;29;20420;-85
2023/10/07 00:22:54;;;;;;;17.88;8.02;;;;;;;15.06;100.00;100713.16;4922404;29;20431;-85
2023/10/07 00:25:30;;;;;;;20.20;7.53;;;;;;;15.07;100.00;100692.06;4923095;29;20452;-82
2023/10/07 00:27:59;;;;;;;17.15;7.97;;;;;;;15.05;100.00;100706.09;4938069;29;20474;-88
2023/10/07 00:30:32;;;;;;;17.33;7.33;;;;;;;15.04;100.00;100709.94;4929420;29;20441;-85
2023/10/07 00:33:09;;;;;;;18.25;7.40;;;;;;;15.10;100.00;100711.44;4941944;28;20531;-83
2023/10/07 00:35:49;;;;;;;14.57;7.72;;;;;;;15.06;100.00;100702.22;4929952;29;20900;-86
2023/10/07 00:38:24;;;;;;;15.48;8.05;;;;;;;15.08;100.00;100710.13;4922297;29;20436;-86
2023/10/07 00:40:57;;;;;;;17.00;7.95;;;;;;;15.04;100.00;100717.34;4926041;29;20439;-84
2023/10/07 00:43:32;;;;;;;18.38;7.85;;;;;;;15.09;100.00;100704.34;4920392;29;20432;-86
2023/10/07 00:46:10;;;;;;;17.50;8.40;;;;;;;15.02;100.00;100701.19;4926287;29;20451;-86
2023/10/07 00:48:47;;;;;;;18.30;8.07;;;;;;;15.11;100.00;100704.84;4923963;29;20437;-85
2023/10/07 00:51:33;;;;;;;17.00;7.90;;;;;;;15.07;100.00;100706.56;4912884;29;20437;-84
2023/10/07 00:54:18;;;;;;;15.75;7.63;;;;;;;15.15;100.00;100702.28;4926841;29;20431;-86
2023/10/07 00:57:05;;;;;;;16.05;7.53;;;;;;;15.20;100.00;100690.38;4947514;28;20435;-84
2023/10/07 00:59:40;;;;;;;18.42;7.72;;;;;;;15.11;100.00;100699.34;4923373;29;20470;-88
2023/10/07 01:02:18;;;;;;;14.25;7.70;;;;;;;15.14;100.00;100695.97;4924675;29;20454;-86
2023/10/07 01:04:52;;;;;;;16.25;8.15;;;;;;;15.11;100.00;100702.09;4915433;29;20432;-85
2023/10/07 01:07:20;;;;;;;16.33;8.20;;;;;;;15.10;100.00;100689.50;4916410;29;20443;-84
2023/10/07 01:10:00;;;;;;;18.17;8.10;;;;;;;15.13;100.00;100682.59;4923900;29;20429;-87
2023/10/07 01:12:38;;;;;;;19.10;8.57;;;;;;;15.09;100.00;100679.69;4928772;29;20433;-84
2023/10/07 01:15:22;;;;;;;19.40;8.88;;;;;;;15.10;100.00;100683.22;4925029;29;20440;-85
2023/10/07 01:18:03;;;;;;;17.73;8.30;;;;;;;15.12;100.00;100670.00;4927959;29;20810;-87
2023/10/07 01:20:34;;;;;;;16.58;8.05;;;;;;;15.06;100.00;100661.09;4925995;29;20429;-85
2023/10/07 01:23:16;;;;;;;16.50;7.78;;;;;;;15.19;100.00;100672.31;4927138;29;20443;-84
2023/10/07 01:25:50;;;;;;;12.45;7.45;;;;;;;15.20;100.00;100674.75;4932120;29;20764;-85
2023/10/07 01:28:20;;;;;;;15.20;7.40;;;;;;;15.18;100.00;100670.69;4930059;29;20798;-84
2023/10/07 01:31:07;;;;;;;18.92;8.30;;;;;;;15.13;100.00;100669.72;4930596;29;20436;-85
2023/10/07 01:33:45;;;;;;;16.60;8.32;;;;;;;15.15;100.00;100663.91;4947525;29;20423;-86
2023/10/07 01:36:20;;;;;;;16.20;8.77;;;;;;;15.13;100.00;100666.16;4917744;29;20466;-87
2023/10/07 01:38:51;;;;;;;17.40;8.82;;;;;;;15.21;100.00;100672.81;4925581;29;20445;-83
2023/10/07 01:41:27;;;;;;;14.63;7.85;;;;;;;15.20;100.00;100662.97;4939030;29;20425;-87
2023/10/07 01:44:00;;;;;;;18.88;8.13;;;;;;;15.16;100.00;100667.47;4934794;29;20428;-86
2023/10/07 01:46:31;;;;;;;18.50;8.77;;;;;;;15.14;100.00;100673.25;4931292;29;20428;-87
2023/10/07 01:49:07;;;;;;;17.95;7.88;;;;;;;15.18;100.00;100676.16;4925398;29;20465;-85
2023/10/07 01:51:43;;;;;;;15.52;7.30;;;;;;;15.21;100.00;100672.81;4933548;29;20433;-85
2023/10/07 01:54:13;;;;;;;13.32;6.95;;;;;;;15.17;100.00;100669.88;4926311;29;20433;-86
2023/10/07 01:56:42;;;;;;;14.07;6.97;;;;;;;15.13;100.00;100664.25;4916638;29;20437;-87
2023/10/07 01:59:18;;;;;;;13.25;5.80;;;;;;;15.22;100.00;100656.06;4937986;29;20431;-87
2023/10/07 02:01:58;;;;;;;12.52;6.55;;;;;;;15.19;100.00;100661.34;4934104;29;20975;-86
2023/10/07 02:04:27;;;;;;;11.05;6.07;;;;;;;15.18;100.00;100656.97;4928747;29;20413;-87
2023/10/07 02:07:00;;;;;;;16.63;6.20;;;;;;;15.19;100.00;100655.88;4931657;29;20443;-83
2023/10/07 02:09:40;;;;;;;11.48;5.10;;;;;;;15.27;100.00;100646.91;4932959;29;20425;-85
2023/10/07 02:12:18;;;;;;;9.93;4.93;;;;;;;15.17;100.00;100649.91;4923480;29;20430;-85
2023/10/07 02:14:46;;;;;;;10.60;5.10;;;;;;;15.22;100.00;100647.84;4929894;29;20424;-88
2023/10/07 02:17:18;;;;;;;13.07;5.13;;;;;;;15.14;100.00;100645.84;4921996;29;20423;-86
2023/10/07 02:19:48;;;;;;;9.38;4.43;;;;;;;15.20;100.00;100647.31;4930941;29;20432;-88
2023/10/07 02:22:28;;;;;;;10.13;4.37;;;;;;;15.24;100.00;100648.31;4932403;29;20494;-88
2023/10/07 02:25:04;;;;;;;9.18;4.30;;;;;;;15.18;100.00;100651.50;4924221;29;20432;-86
2023/10/07 02:27:41;;;;;;;8.68;4.30;;;;;;;15.22;100.00;100638.78;4929159;29;20440;-88
2023/10/07 02:30:19;;;;;;;7.32;3.85;;;;;;;15.15;100.00;100652.97;4922938;29;20439;-86
2023/10/07 02:32:52;;;;;;;10.35;4.50;;;;;;;15.14;100.00;100643.09;4919297;29;20438;-83
2023/10/07 02:35:30;;;;;;;8.33;4.20;;;;;;;15.18;100.00;100637.78;4933581;29;20451;-85
2023/10/07 02:38:03;;;;;;;8.65;4.30;;;;;;;15.20;100.00;100652.00;4930612;29;20439;-87
2023/10/07 02:40:48;;;;;;;8.23;4.25;;;;;;;15.21;100.00;100642.69;4942021;29;20441;-86
2023/10/07 02:43:22;;;;;;;9.95;4.53;;;;;;;15.21;100.00;100640.72;4935176;29;20435;-85
2023/10/07 02:45:50;;;;;;;7.93;4.20;;;;;;;15.24;100.00;100659.28;4926124;29;20436;-87
2023/10/07 02:48:23;;;;;;;12.80;5.07;;;;;;;15.19;100.00;100653.97;4929897;29;20439;-89
2023/10/07 02:51:06;;;;;;;10.90;4.95;;;;;;;15.15;100.00;100658.44;4928057;29;20423;-84
2023/10/07 02:53:39;;;;;;;10.40;5.43;;;;;;;15.22;100.00;100657.97;4927289;29;20437;-86
2023/10/07 02:56:17;;;;;;;12.30;6.10;;;;;;;15.21;100.00;100670.88;4945242;29;20424;-83
2023/10/07 02:59:00;;;;;;;14.88;6.18;;;;;;;15.19;100.00;100653.13;4926118;29;20444;-88
2023/10/07 03:01:37;;;;;;;11.23;5.78;;;;;;;15.33;100.00;100662.13;4930044;29;20437;-88
2023/10/07 03:04:10;;;;;;;10.40;6.10;;;;;;;15.21;100.00;100664.59;4929277;29;20433;-86
2023/10/07 03:06:46;;;;;;;11.88;6.10;;;;;;;15.15;100.00;100655.69;4932688;29;20408;-86
2023/10/07 03:09:19;;;;;;;9.82;6.25;;;;;;;15.31;100.00;100675.31;4926541;29;20408;-84
2023/10/07 03:11:49;;;;;;;10.30;6.57;;;;;;;15.25;100.00;100668.34;4923136;29;20789;-90
2023/10/07 03:14:25;;;;;;;14.33;7.07;;;;;;;15.36;100.00;100655.19;4924357;29;20444;-92
2023/10/07 03:17:00;;;;;;;10.07;6.57;;;;;;;15.27;100.00;100653.22;4927101;29;20437;-88
2023/10/07 03:19:46;;;;;;;10.10;5.80;;;;;;;15.17;100.00;100658.13;4933801;29;20419;-86
2023/10/07 03:22:28;;;;;;;10.52;6.28;;;;;;;15.33;100.00;100666.78;4937400;29;20440;-89
2023/10/07 03:25:00;;;;;;;7.90;6.03;;;;;;;15.22;100.00;100668.94;4921182;29;20408;-86
2023/10/07 03:27:39;;;;;;;11.68;5.90;;;;;;;15.19;100.00;100675.88;4931238;29;20435;-90
2023/10/07 03:30:15;;;;;;;7.88;4.70;;;;;;;15.20;100.00;100673.94;4923367;29;21230;-82
2023/10/07 03:32:54;;;;;;;6.57;4.60;;;;;;;15.24;100.00;100669.47;4926214;29;20792;-89
2023/10/07 03:35:44;;;;;;;7.10;4.65;;;;;;;15.35;100.00;100676.31;4939316;29;20432;-87
2023/10/07 03:38:19;;;;;;;8.10;4.20;;;;;;;15.26;100.00;100683.66;4933087;29;20452;-89
2023/10/07 03:40:54;;;;;;;8.90;4.10;;;;;;;15.23;100.00;100687.03;4929734;29;20426;-89
2023/10/07 03:43:26;;;;;;;7.38;4.03;;;;;;;15.35;100.00;100681.78;4913778;29;20436;-88
2023/10/07 03:45:59;;;;;;;7.20;3.08;;;;;;;15.21;100.00;100683.78;4936727;29;20431;-88
2023/10/07 03:48:31;;;;;;;4.23;2.20;;;;;;;15.21;100.00;100672.81;4921656;29;20790;-90
2023/10/07 03:51:07;;;;;;;3.97;1.93;;;;;;;15.25;100.00;100679.31;4923694;29;20775;-89
2023/10/07 03:53:45;;;;;;;2.45;1.27;;;;;;;15.21;100.00;100683.78;4929329;29;20976;-89
2023/10/07 03:56:14;;;;;;;1.92;1.00;;;;;;;15.13;100.00;100685.34;4932618;29;20446;-87
2023/10/07 03:58:49;;;;;;;1.60;0.80;;;;;;;15.05;100.00;100691.56;4946391;29;20903;-87
2023/10/07 04:01:26;;;;;;;1.00;0.60;;;;;;;15.13;100.00;100677.94;4936126;29;20441;-87
2023/10/07 04:03:59;;;;;;;1.80;0.70;;;;;;;15.06;100.00;100688.50;4929627;29;20442;-85
2023/10/07 04:06:34;;;;;;;3.28;0.70;;;;;;;14.90;100.00;100689.97;4922468;29;20440;-87
2023/10/07 04:09:07;;;;;;;2.55;0.60;;;;;;;14.81;100.00;100695.38;4925424;29;20449;-88
2023/10/07 04:11:37;;;;;;;2.15;0.73;;;;;;;14.76;100.00;100706.44;4932451;29;20454;-89
2023/10/07 04:14:19;;;;;;;3.08;0.80;;;;;;;14.80;100.00;100699.22;4929449;29;20425;-88
2023/10/07 04:16:50;;;;;;;2.22;0.82;;;;;;;14.80;100.00;100696.50;4921099;29;20423;-88
2023/10/07 04:19:35;;;;;;;3.72;0.85;;;;;;;14.83;100.00;100697.81;4920932;29;20435;-89
2023/10/07 04:22:09;;;;;;;2.28;0.73;;;;;;;14.67;100.00;100702.84;4929256;29;21243;-89
2023/10/07 04:24:45;;;;;;;3.28;0.63;;;;;;;14.62;100.00;100704.56;4931782;29;20928;-89
2023/10/07 04:27:21;;;;;;;4.40;0.73;;;;;;;14.59;100.00;100715.28;4924747;29;20770;-89
2023/10/07 04:29:52;;;;;;;3.28;0.85;;;;;;;14.62;100.00;100714.66;4934398;29;20438;-85
2023/10/07 04:32:21;;;;;;;1.60;0.70;;;;;;;14.55;100.00;100727.97;4921510;29;20447;-88
2023/10/07 04:35:14;;;;;;;4.03;0.90;;;;;;;14.60;100.00;100719.66;4929838;29;20445;-89
2023/10/07 04:37:54;;;;;;;4.93;1.00;;;;;;;14.52;100.00;100737.59;4926592;29;20431;-89
2023/10/07 04:43:47;;;;;;;9.15;1.45;;;;;;;14.18;100.00;100744.25;4924329;29;20419;-88
2023/10/07 04:46:22;;;;;;;10.27;1.40;;;;;;;14.05;100.00;100743.13;4932348;29;20432;-85
2023/10/07 04:48:58;;;;;;;10.88;1.50;;;;;;;14.00;100.00;100745.97;4923184;29;20437;-91
2023/10/07 04:51:46;;;;;;;12.18;1.45;;;;;;;13.90;100.00;100736.00;4921468;29;20440;-89
2023/10/07 04:54:21;;;;;;;8.68;1.40;;;;;;;13.99;100.00;100732.59;4919168;29;20433;-87
2023/10/07 04:57:00;;;;;;;8.75;1.42;;;;;;;13.93;100.00;100735.44;4943051;29;20437;-86
2023/10/07 04:59:33;;;;;;;9.37;1.40;;;;;;;14.04;100.00;100730.56;4928494;29;20516;-87
2023/10/07 05:02:10;;;;;;;11.32;1.63;;;;;;;14.03;100.00;100742.66;4923729;29;20436;-88
2023/10/07 05:04:39;;;;;;;7.70;1.33;;;;;;;13.91;100.00;100739.59;4932781;29;20423;-86
2023/10/07 05:07:10;;;;;;;9.40;1.40;;;;;;;13.97;100.00;100734.81;4929413;29;21141;-86
2023/10/07 05:09:38;;;;;;;5.60;1.13;;;;;;;14.02;100.00;100743.75;4930488;29;20421;-89
2023/10/07 05:12:10;;;;;;;6.60;1.00;;;;;;;14.01;100.00;100742.13;4934296;29;20443;-87
2023/10/07 05:14:39;;;;;;;6.05;1.10;;;;;;;13.99;100.00;100743.53;4931322;29;20422;-87
2023/10/07 05:17:10;;;;;;;4.60;1.20;;;;;;;14.04;100.00;100733.31;4933691;29;20531;-88
2023/10/07 05:19:38;;;;;;;6.57;1.40;;;;;;;14.10;100.00;100739.50;4929023;29;20431;-85
2023/10/07 05:22:18;;;;;;;7.13;1.40;;;;;;;14.04;100.00;100744.25;4930452;29;20423;-85
2023/10/07 05:24:57;;;;;;;10.48;1.20;;;;;;;13.91;100.00;100751.31;4933072;29;20469;-86
2023/10/07 05:27:25;;;;;;;7.87;1.40;;;;;;;14.03;100.00;100748.13;4934083;29;20896;-85
2023/10/07 05:29:58;;;;;;;8.88;1.38;;;;;;;13.98;100.00;100745.47;4930513;29;20476;-86
2023/10/07 05:32:35;;;;;;;9.68;1.60;;;;;;;13.93;100.00;100756.50;4945642;28;20436;-86
2023/10/07 05:35:05;;;;;;;8.68;1.38;;;;;;;13.92;100.00;100743.91;4942879;28;20424;-84
2023/10/07 05:37:33;;;;;;;8.23;1.38;;;;;;;13.89;100.00;100744.53;4932576;29;20427;-86
2023/10/07 05:40:03;;;;;;;10.57;1.60;;;;;;;13.86;100.00;100745.94;4943452;28;20971;-86
2023/10/07 05:42:36;;;;;;;8.90;1.58;;;;;;;13.81;100.00;100742.47;4932493;29;20434;-86
2023/10/07 05:45:10;;;;;;;9.57;1.67;;;;;;;13.82;100.00;100747.66;4933186;29;20791;-86
2023/10/07 05:47:45;;;;;;;10.07;1.90;;;;;;;13.81;100.00;100739.75;4930593;29;20428;-86
2023/10/07 05:50:14;;;;;;;10.55;1.60;;;;;;;13.81;100.00;100740.56;4931065;29;20415;-86
2023/10/07 05:52:44;;;;;;;8.18;1.75;;;;;;;13.81;100.00;100737.84;4927423;29;20419;-86
2023/10/07 05:55:17;;;;;;;8.23;1.60;;;;;;;13.84;100.00;100730.97;4929506;29;20517;-85
2023/10/07 05:57:45;;;;;;;9.25;1.80;;;;;;;13.87;100.00;100728.41;4938931;29;20438;-82
2023/10/07 06:00:21;;;;;;;10.13;1.60;;;;;;;13.86;100.00;100740.47;4927404;29;20416;-81
2023/10/07 06:02:55;;;;;;;11.88;1.77;;;;;;;13.84;100.00;100750.91;4946894;28;20439;-81
2023/10/07 06:05:27;;;;;;;6.63;1.50;;;;;;;13.86;100.00;100756.06;4921509;29;20431;-82
2023/10/07 06:07:57;;;;;;;15.05;1.90;;;;;;;13.92;100.00;100750.22;4934789;29;20436;-83
2023/10/07 06:10:25;;;;;;;7.68;1.50;;;;;;;13.85;100.00;100751.72;4926399;29;20752;-81
2023/10/07 06:12:58;;;;;;;11.10;1.70;;;;;;;13.86;100.00;100747.88;4927052;29;20429;-82
2023/10/07 06:15:34;;;;;;;9.93;2.10;;;;;;;13.91;100.00;100761.47;4922663;29;20441;-81
2023/10/07 06:18:08;;;;;;;14.90;1.98;;;;;;;13.84;100.00;100764.59;4924476;29;20445;-81
2023/10/07 06:20:38;;;;;;;11.13;2.00;;;;;;;13.86;100.00;100764.28;4924196;29;20481;-82
2023/10/07 06:23:13;;;;;;;15.10;2.30;;;;;;;13.90;100.00;100759.84;4925400;29;20452;-81
2023/10/07 06:25:49;;;;;;;6.50;1.50;;;;;;;13.94;100.00;100769.88;4922377;29;20929;-82
2023/10/07 06:28:29;;;;;;;9.98;1.60;;;;;;;13.85;100.00;100771.69;4919685;29;20918;-81
2023/10/07 06:31:10;;;;;;;8.55;1.45;;;;;;;13.93;100.00;100768.25;4924317;29;20442;-81
2023/10/07 06:33:47;;;;;;;11.65;1.52;;;;;;;13.93;100.00;100764.69;4923637;29;20895;-82
2023/10/07 06:36:15;;;;;;;12.10;1.73;;;;;;;13.86;100.00;100765.09;4930535;29;20432;-82
2023/10/07 06:38:51;;;;;;;11.70;1.40;;;;;;;13.93;100.00;100768.25;4923946;29;20435;-81
2023/10/07 06:41:20;;;;;;;9.83;1.50;;;;;;;13.93;100.00;100759.22;4923320;29;20497;-81
2023/10/07 06:43:50;;;;;;;10.83;1.60;;;;;;;13.85;100.00;100768.13;4926711;29;21001;-81
2023/10/07 06:46:20;;;;;;;10.95;1.88;;;;;;;13.91;100.00;100764.19;4924892;29;20447;-82
2023/10/07 06:48:50;;;;;;;12.70;1.97;;;;;;;13.96;100.00;100766.81;4924415;29;20426;-80
2023/10/07 06:51:18;;;;;;;10.00;1.58;;;;;;;13.88;100.00;100768.34;4929332;29;20425;-81
2023/10/07 06:53:51;;;;;;;13.10;2.05;;;;;;;13.88;100.00;100768.34;4921701;29;20437;-81
2023/10/07 06:56:26;;;;;;;9.80;1.58;;;;;;;13.93;100.00;100764.69;4925374;29;20431;-81
2023/10/07 06:59:00;;;;;;;12.30;2.05;;;;;;;13.97;100.00;100779.41;4924082;29;20818;-81
2023/10/07 07:01:51;;;;;;;8.52;1.50;;;;;;;13.97;100.00;100776.66;4926971;29;20452;-82
2023/10/07 07:04:27;;;;;;;14.48;2.10;;;;;;;13.98;100.00;100781.03;4919427;29;20445;-81
2023/10/07 07:07:11;;;;;;;12.70;1.73;;;;;;;13.85;100.00;100782.63;4920848;29;20429;-90
2023/10/07 07:09:42;;;;;;;13.82;1.80;;;;;;;13.83;100.00;100786.78;4929529;29;20435;-82
2023/10/07 07:12:12;;;;;;;15.10;2.03;;;;;;;13.89;100.00;100793.75;4922369;29;20437;-86
2023/10/07 07:14:50;;;;;;;10.60;1.80;;;;;;;13.99;100.00;100804.56;4923258;29;20441;-85
2023/10/07 07:17:36;;;;;;;12.02;2.22;;;;;;;13.85;100.00;100796.31;4944491;28;20439;-85
2023/10/07 07:20:32;;;;;;;13.35;2.13;;;;;;;13.84;100.00;100804.81;4932550;29;20441;-87
2023/10/07 07:23:04;;;;;;;11.45;2.00;;;;;;;13.90;100.00;100801.66;4926294;29;20445;-86
2023/10/07 07:25:39;;;;;;;10.98;1.50;;;;;;;13.86;100.00;100799.84;4930033;29;20443;-88
2023/10/07 07:28:09;;;;;;;13.07;1.90;;;;;;;13.87;100.00;100801.47;4930045;29;20423;-88
2023/10/07 07:30:43;;;;;;;12.30;1.83;;;;;;;13.70;100.00;100797.38;4927866;29;20436;-88
2023/10/07 07:33:16;;;;;;;8.98;1.48;;;;;;;13.70;100.00;100802.84;4925505;29;20459;-88
2023/10/07 07:35:51;;;;;;;9.98;1.67;;;;;;;13.85;100.00;100803.69;4930233;29;20923;-89
2023/10/07 07:38:29;;;;;;;9.48;1.70;;;;;;;13.85;100.00;100792.75;4926516;29;20975;-89
2023/10/07 07:41:04;;;;;;;13.25;1.73;;;;;;;13.75;100.00;100797.28;4922597;29;20440;-89
2023/10/07 07:43:33;;;;;;;11.68;1.50;;;;;;;13.73;100.00;100794.03;4936205;29;20436;-87
2023/10/07 07:46:18;;;;;;;14.00;1.77;;;;;;;13.72;100.00;100797.06;4930925;29;20436;-85
2023/10/07 07:48:46;;;;;;;17.73;2.97;;;;;;;13.76;100.00;100801.63;4927638;29;20436;-85
2023/10/07 07:51:24;;;;;;;11.48;2.10;;;;;;;13.77;100.00;100797.78;4930880;29;21269;-84
2023/10/07 07:53:53;;;;;;;11.30;2.20;;;;;;;13.78;100.00;100796.69;4923279;29;20413;-84
2023/10/07 07:56:22;;;;;;;11.98;2.20;;;;;;;13.90;100.00;100804.41;4933363;29;21254;-85
2023/10/07 07:58:52;;;;;;;12.48;2.03;;;;;;;13.87;100.00;100807.75;4926422;29;20431;-86
2023/10/07 08:01:23;;;;;;;9.70;1.80;;;;;;;13.88;100.00;100798.44;4925542;29;20438;-87
2023/10/07 08:03:51;;;;;;;13.17;2.00;;;;;;;13.81;100.00;100810.88;4928610;29;20437;-84
2023/10/07 08:06:21;;;;;;;8.32;1.65;;;;;;;13.89;100.00;100801.97;4930548;29;20449;-86
2023/10/07 08:08:55;;;;;;;7.00;1.60;;;;;;;13.99;100.00;100798.25;4920474;29;22645;-85
2023/10/07 08:11:23;;;;;;;9.82;1.70;;;;;;;13.95;100.00;100798.06;4933680;28;20803;-87
2023/10/07 08:13:53;;;;;;;9.25;1.67;;;;;;;14.01;100.00;100796.84;4924741;29;20427;-90
2023/10/07 08:16:26;;;;;;;8.93;2.00;;;;;;;14.00;100.00;100800.69;4925594;29;20446;-88
2023/10/07 08:18:56;;;;;;;9.43;1.98;;;;;;;14.06;100.00;100799.50;4926242;29;20437;-88
2023/10/07 08:21:29;;;;;;;8.15;1.50;;;;;;;13.91;100.00;100806.03;4923926;29;20456;-85
2023/10/07 08:24:01;;;;;;;7.47;1.30;;;;;;;13.94;100.00;100813.63;4922914;29;20441;-89
2023/10/07 08:26:34;;;;;;;6.43;1.20;;;;;;;13.99;100.00;100817.41;4924727;29;20432;-88
2023/10/07 08:29:03;;;;;;;8.05;1.33;;;;;;;13.86;100.00;100819.78;4930521;29;20438;-89
2023/10/07 08:31:39;;;;;;;3.80;1.10;;;;;;;13.87;100.00;100821.44;4922355;29;20931;-89
2023/10/07 08:34:11;;;;;;;9.05;1.30;;;;;;;13.83;100.00;100820.41;4938182;29;20445;-90
2023/10/07 08:36:43;;;;;;;7.70;1.30;;;;;;;13.90;100.00;100807.13;4930767;29;20915;-91
2023/10/07 08:39:12;;;;;;;7.45;1.33;;;;;;;13.95;100.00;100820.75;4926279;29;20512;-90
2023/10/07 08:41:41;;;;;;;7.68;1.80;;;;;;;13.93;100.00;100812.03;4925432;29;20432;-88
2023/10/07 08:44:14;;;;;;;10.07;1.50;;;;;;;14.00;100.00;100806.16;4928378;29;20447;-86
2023/10/07 08:46:48;;;;;;;4.82;1.55;;;;;;;13.97;100.00;100804.03;4939778;29;20445;-86
2023/10/07 08:49:25;;;;;;;6.55;1.35;;;;;;;14.03;100.00;100797.38;4925131;29;20441;-86
2023/10/07 08:51:57;;;;;;;8.43;1.33;;;;;;;13.92;100.00;100804.94;4920482;29;20440;-86
2023/10/07 08:54:31;;;;;;;6.20;1.42;;;;;;;13.83;100.00;100806.72;4925244;29;20421;-86
2023/10/07 08:57:06;;;;;;;9.23;1.67;;;;;;;13.76;100.00;100814.50;4940703;28;20508;-85
2023/10/07 08:59:34;;;;;;;10.10;1.60;;;;;;;13.54;100.00;100821.38;4926076;29;20953;-87
2023/10/07 09:02:12;;;;;;;5.82;1.40;;;;;;;13.60;100.00;100802.97;4929823;29;20984;-86
2023/10/07 09:04:41;;;;;;;6.55;1.40;;;;;;;13.59;100.00;100807.66;4925676;29;20954;-85
2023/10/07 09:07:11;;;;;;;9.38;1.60;;;;;;;13.48;100.00;100817.13;4926706;29;20433;-86
2023/10/07 09:09:43;;;;;;;8.13;1.47;;;;;;;13.56;100.00;100821.09;4930828;29;21382;-86
2023/10/07 09:12:14;;;;;;;6.82;1.55;;;;;;;13.63;100.00;100815.25;4926192;29;20433;-87
2023/10/07 09:14:51;;;;;;;7.07;1.60;;;;;;;13.60;100.00;100811.19;4927863;29;21071;-87
2023/10/07 09:17:26;;;;;;;7.18;1.50;;;;;;;13.37;100.00;100807.44;4927421;29;20958;-87
2023/10/07 09:19:58;;;;;;;8.70;1.42;;;;;;;13.52;100.00;100806.38;4919886;29;20437;-85
2023/10/07 09:22:35;;;;;;;8.63;1.58;;;;;;;13.59;100.00;100804.09;4926358;29;20510;-87
2023/10/07 09:25:16;;;;;;;8.38;1.60;;;;;;;13.58;100.00;100803.28;4917341;29;20445;-86
2023/10/07 09:27:54;;;;;;;7.03;1.67;;;;;;;13.59;100.00;100802.19;4924843;29;20435;-85
2023/10/07 09:30:44;;;;;;;6.07;1.50;;;;;;;13.63;100.00;100802.41;4926044;29;20443;-83
2023/10/07 09:33:15;;;;;;;7.13;1.50;;;;;;;13.64;100.00;100792.28;4930946;28;20441;-84
2023/10/07 09:35:45;;;;;;;7.13;1.42;;;;;;;13.59;100.00;100784.97;4927209;29;20435;-86
2023/10/07 09:38:28;;;;;;;5.82;1.55;;;;;;;13.59;100.00;100791.25;4924208;29;20441;-86
2023/10/07 09:41:12;;;;;;;4.45;1.35;;;;;;;13.76;100.00;100782.47;4926276;29;20456;-87
2023/10/07 09:43:47;;;;;;;4.13;1.20;;;;;;;13.75;100.00;100783.63;4932893;29;20432;-86
2023/10/07 09:46:24;;;;;;;4.05;1.00;;;;;;;13.71;100.00;100792.69;4932743;29;20420;-85
2023/10/07 09:48:52;;;;;;;4.60;1.20;;;;;;;13.64;100.00;100795.81;4939008;29;20437;-86
2023/10/07 09:51:28;;;;;;;3.85;1.08;;;;;;;13.57;100.00;100809.84;4928212;29;20479;-87
2023/10/07 09:54:15;;;;;;;3.63;0.95;;;;;;;13.49;100.00;100805.06;4932877;29;20449;-86
2023/10/07 09:56:59;;;;;;;4.07;1.10;;;;;;;13.53;100.00;100810.75;4922057;29;20433;-84
2023/10/07 09:59:43;;;;;;;4.47;0.90;;;;;;;13.52;100.00;100814.59;4929361;29;20446;-86
2023/10/07 10:02:45;;;;;;;4.22;0.98;;;;;;;13.51;100.00;100808.31;4926793;29;20428;-85
2023/10/07 10:05:38;;;;;;;3.92;0.88;;;;;;;13.51;100.00;100810.25;4927012;29;20843;-85
2023/10/07 10:08:43;;;;;;;3.10;0.65;;;;;;;13.41;100.00;100811.22;4929716;29;20436;-85
2023/10/07 10:11:30;;;;;;;8.10;1.10;;;;;;;13.35;100.00;100801.41;4921098;29;20433;-89
2023/10/07 10:14:16;;;;;;;4.05;0.98;;;;;;;13.38;100.00;100812.63;4932091;29;20431;-85
2023/10/07 10:16:46;;;;;;;5.35;0.80;;;;;;;13.28;100.00;100818.19;4927049;29;20914;-86
2023/10/07 10:19:25;;;;;;;4.65;0.80;;;;;;;13.14;100.00;100812.63;4930170;29;20447;-86
2023/10/07 10:21:53;;;;;;;5.05;0.70;;;;;;;13.23;100.00;100820.97;4924163;29;20448;-86
2023/10/07 10:24:29;;;;;;;2.70;0.70;;;;;;;13.23;100.00;100821.81;4923444;29;20435;-85
2023/10/07 10:27:05;;;;;;;4.10;0.63;;;;;;;13.16;100.00;100813.16;4927093;29;20440;-86
2023/10/07 10:29:55;;;;;;;3.58;0.70;;;;;;;13.25;100.00;100814.09;4930140;29;20435;-85
2023/10/07 10:32:29;;;;;;;3.38;0.70;;;;;;;13.24;100.00;100820.69;4929267;29;20439;-84
2023/10/07 10:35:06;;;;;;;3.88;0.85;;;;;;;13.23;100.00;100818.25;4927429;29;20442;-85
2023/10/07 10:37:37;;;;;;;4.10;1.00;;;;;;;13.38;100.00;100826.28;4930338;29;20429;-85
2023/10/07 10:40:17;;;;;;;5.57;1.20;;;;;;;13.46;100.00;100821.25;4922174;29;20790;-85
2023/10/07 10:42:51;;;;;;;2.72;0.82;;;;;;;13.36;100.00;100820.28;4924685;29;21044;-86
2023/10/07 10:45:26;;;;;;;4.17;1.30;;;;;;;13.39;100.00;100816.16;4931227;29;20443;-86
2023/10/07 10:48:00;;;;;;;19.60;9.20;;;;;;;13.38;100.00;100825.44;4928710;29;20430;-85
2023/10/07 10:50:33;;;;;;;17.90;4.38;;;;;;;13.54;100.00;100815.91;4929466;29;20798;-84
2023/10/07 10:53:01;;;;;;;4.68;1.77;;;;;;;13.36;100.00;100817.53;4942320;29;20439;-89
2023/10/07 10:55:35;;;;;;;3.23;1.13;;;;;;;13.39;100.00;100816.16;4931179;29;20434;-88
2023/10/07 10:58:17;;;;;;;2.70;0.90;;;;;;;13.17;100.00;100828.44;4930123;29;20441;-87
2023/10/07 11:00:49;;;;;;;3.30;0.93;;;;;;;13.48;100.00;100805.34;4929280;29;20447;-85
2023/10/07 11:03:20;;;;;;;2.28;1.00;;;;;;;13.35;100.00;100826.00;4930455;29;20441;-87
2023/10/07 11:05:49;;;;;;;3.67;1.63;;;;;;;13.47;100.00;100806.47;4928378;29;20425;-88
2023/10/07 11:08:22;;;;;;;1.90;0.80;;;;;;;13.44;100.00;100819.63;4936682;29;20455;-86
2023/10/07 11:10:53;;;;;;;2.53;0.93;;;;;;;13.51;100.00;100826.66;4930738;29;20442;-91
2023/10/07 11:13:23;;;;;;;3.63;1.20;;;;;;;13.43;100.00;100828.91;4924551;29;20424;-85
2023/10/07 11:15:58;;;;;;;2.47;0.90;;;;;;;13.35;100.00;100836.94;4927172;29;20462;-88
2023/10/07 11:18:30;;;;;;;1.58;0.50;;;;;;;13.17;100.00;100844.03;4928818;29;20935;-86
2023/10/07 11:21:01;;;;;;;1.13;0.60;;;;;;;13.25;100.00;100833.25;4923127;29;20472;-87
2023/10/07 11:23:30;;;;;;;2.95;0.50;;;;;;;13.23;100.00;100842.84;4929606;29;20433;-85
2023/10/07 11:26:03;;;;;;;1.00;0.50;;;;;;;13.26;100.00;100826.69;4927845;29;20432;-87
2023/10/07 11:28:38;;;;;;;2.15;0.57;;;;;;;13.27;100.00;100836.50;4941830;28;20438;-84
2023/10/07 11:31:11;;;;;;;1.25;0.40;;;;;;;13.18;100.00;100843.72;4927224;29;20441;-82
2023/10/07 11:33:50;;;;;;;2.20;0.52;;;;;;;13.24;100.00;100849.94;4927807;29;20437;-84
2023/10/07 11:36:18;;;;;;;0.60;0.50;;;;;;;13.33;100.00;100844.66;4919701;29;20442;-85
2023/10/07 11:38:47;;;;;;;2.40;0.80;;;;;;;13.14;100.00;100842.69;4927292;29;20439;-85
2023/10/07 11:41:16;;;;;;;11.02;5.55;;;;;;;13.24;100.00;100841.75;4926433;29;20823;-84
2023/10/07 11:43:52;;;;;;;1.40;0.75;;;;;;;13.18;100.00;100837.47;4930177;29;20820;-88
2023/10/07 11:46:20;;;;;;;3.17;0.93;;;;;;;13.13;100.00;100830.13;4928977;29;20433;-84
2023/10/07 11:48:49;;;;;;;3.22;0.70;;;;;;;13.02;100.00;100837.66;4924766;29;20429;-84
2023/10/07 11:51:18;;;;;;;1.05;0.50;;;;;;;12.99;100.00;100843.69;4926466;29;20440;-85
2023/10/07 11:53:51;;;;;;;2.53;0.75;;;;;;;13.04;100.00;100845.56;4928772;29;20436;-87